createdAt,value
2023-05-09T00:00:08.011Z,100053.00
2023-05-09T00:02:34.826Z,100045.75
2023-05-09T00:05:01.593Z,100041.22
2023-05-09T00:07:28.395Z,100038.22
2023-05-09T00:09:56.502Z,100039.63
2023-05-09T00:12:23.346Z,100029.44
2023-05-09T00:14:50.597Z,100017.59
2023-05-09T00:17:17.250Z,100024.09
2023-05-09T00:19:44.409Z,100020.34
2023-05-09T00:22:11.059Z,100019.25
2023-05-09T00:24:37.671Z,100018.06
2023-05-09T00:27:06.043Z,100019.66
2023-05-09T00:29:32.650Z,100014.31
2023-05-09T00:31:59.403Z,100014.38
2023-05-09T00:34:26.200Z,100013.16
2023-05-09T00:36:52.856Z,100011.97
2023-05-09T00:39:19.467Z,100009.41
2023-05-09T00:41:46.491Z,99998.63
2023-05-09T00:44:14.591Z,99999.34
2023-05-09T00:46:41.494Z,99992.66
2023-05-09T00:49:08.489Z,99990.09
2023-05-09T00:51:36.841Z,99987.59
2023-05-09T00:54:03.650Z,99990.16
2023-05-09T00:56:31.280Z,99983.72
2023-05-09T00:58:58.549Z,99981.22
2023-05-09T01:01:26.907Z,99972.97
2023-05-09T01:03:55.194Z,99984.31
2023-05-09T01:06:31.262Z,99978.25
2023-05-09T01:09:03.482Z,99968.56
2023-05-09T01:11:36.319Z,99977.97
2023-05-09T01:14:12.706Z,99973.31
2023-05-09T01:16:47.629Z,99971.03
2023-05-09T01:19:32.885Z,99968.41
2023-05-09T01:22:05.680Z,99971.06
2023-05-09T01:25:01.052Z,99966.28
2023-05-09T01:27:37.642Z,99962.19
2023-05-09T01:30:10.121Z,99959.94
2023-05-09T01:32:39.255Z,99958.75
2023-05-09T01:35:12.004Z,99956.47
2023-05-09T01:37:42.944Z,99959.44
2023-05-09T01:40:14.314Z,99963.38
2023-05-09T01:42:44.205Z,99955.84
2023-05-09T01:45:15.774Z,99955.25
2023-05-09T01:47:43.882Z,99949.97
2023-05-09T01:50:12.667Z,99945.69
2023-05-09T01:52:40.755Z,99958.84
2023-05-09T01:55:08.924Z,99960.66
2023-05-09T01:57:37.595Z,99965.19
2023-05-09T02:00:06.366Z,99960.06
2023-05-09T02:02:35.879Z,99953.81
2023-05-09T02:05:02.906Z,99965.44
2023-05-09T02:07:30.104Z,99963.28
2023-05-09T02:09:58.379Z,99962.22
2023-05-09T02:12:25.128Z,99956.81
2023-05-09T02:14:52.021Z,99956.59
2023-05-09T02:17:18.711Z,99962.47
2023-05-09T02:19:46.913Z,99964.72
2023-05-09T02:22:15.156Z,99957.91
2023-05-09T02:24:43.123Z,99950.50
2023-05-09T02:27:11.651Z,99949.16
2023-05-09T02:29:44.826Z,99946.16
2023-05-09T02:32:15.175Z,99945.69
2023-05-09T02:34:42.685Z,99950.13
2023-05-09T02:37:11.826Z,99946.53
2023-05-09T02:39:38.599Z,99948.69
2023-05-09T02:42:06.993Z,99961.47
2023-05-09T02:44:33.819Z,99951.19
2023-05-09T02:47:01.072Z,99954.66
2023-05-09T02:49:32.308Z,99949.16
2023-05-09T02:51:59.697Z,99952.88
2023-05-09T02:54:27.795Z,99949.28
2023-05-09T02:56:54.434Z,99946.59
2023-05-09T02:59:21.474Z,99946.38
2023-05-09T03:01:48.215Z,99946.84
2023-05-09T03:04:14.961Z,99942.66
2023-05-09T03:06:41.741Z,99945.09
2023-05-09T03:09:08.318Z,99953.13
2023-05-09T03:11:36.522Z,99946.72
2023-05-09T03:14:03.484Z,99943.69
2023-05-09T03:16:30.258Z,99938.78
2023-05-09T03:18:57.193Z,99943.69
2023-05-09T03:21:23.795Z,99942.00
2023-05-09T03:23:50.438Z,99936.34
2023-05-09T03:26:17.365Z,99941.03
2023-05-09T03:28:46.181Z,99937.19
2023-05-09T03:31:12.849Z,99936.47
2023-05-09T03:33:39.920Z,99942.09
2023-05-09T03:36:07.112Z,99936.25
2023-05-09T03:38:33.789Z,99936.09
2023-05-09T03:41:00.536Z,99927.72
2023-05-09T03:43:27.180Z,99933.03
2023-05-09T03:45:55.188Z,99930.63
2023-05-09T03:48:21.985Z,99934.03
2023-05-09T03:50:48.656Z,99926.38
2023-05-09T03:53:15.334Z,99927.56
2023-05-09T03:55:42.062Z,99933.50
2023-05-09T03:58:08.685Z,99921.84
2023-05-09T04:00:35.364Z,99916.63
2023-05-09T04:03:04.318Z,99915.59
2023-05-09T04:05:31.164Z,99921.13
2023-05-09T04:07:57.741Z,99908.19
2023-05-09T04:10:24.430Z,99912.69
2023-05-09T04:12:51.104Z,99893.41
2023-05-09T04:15:17.976Z,99894.44
2023-05-09T04:17:44.614Z,99893.25
2023-05-09T04:20:13.564Z,99911.84
2023-05-09T04:22:40.182Z,99913.06
2023-05-09T04:25:08.017Z,99907.56
2023-05-09T04:27:34.588Z,99904.94
2023-05-09T04:30:01.261Z,99906.59
2023-05-09T04:32:28.079Z,99906.84
2023-05-09T04:34:54.728Z,99897.78
2023-05-09T04:37:22.807Z,99897.03
2023-05-09T04:39:49.514Z,99905.75
2023-05-09T04:42:16.096Z,99905.19
2023-05-09T04:44:42.752Z,99893.56
2023-05-09T04:47:09.578Z,99895.97
2023-05-09T04:49:36.252Z,99901.84
2023-05-09T04:52:03.013Z,99896.41
2023-05-09T04:54:31.260Z,99894.25
2023-05-09T04:57:09.813Z,99886.72
2023-05-09T04:59:40.942Z,99879.06
2023-05-09T05:02:07.571Z,99873.22
2023-05-09T05:04:34.192Z,99875.13
2023-05-09T05:07:00.915Z,99871.47
2023-05-09T05:09:27.575Z,99869.91
2023-05-09T05:12:01.716Z,99865.34
2023-05-09T05:14:30.082Z,99867.81
2023-05-09T05:16:56.678Z,99865.97
2023-05-09T05:19:23.788Z,99864.66
2023-05-09T05:21:50.490Z,99873.97
2023-05-09T05:24:17.196Z,99868.34
2023-05-09T05:26:43.922Z,99867.66
2023-05-09T05:29:11.966Z,99869.31
2023-05-09T05:31:38.728Z,99871.09
2023-05-09T05:34:05.423Z,99870.16
2023-05-09T05:36:32.095Z,99866.91
2023-05-09T05:38:58.820Z,99863.06
2023-05-09T05:41:25.679Z,99870.47
2023-05-09T05:43:54.082Z,99865.25
2023-05-09T05:46:22.582Z,99873.56
2023-05-09T05:48:49.354Z,99871.66
2023-05-09T05:51:16.030Z,99878.72
2023-05-09T05:53:42.936Z,99876.56
2023-05-09T05:56:09.858Z,99864.31
2023-05-09T05:58:37.070Z,99867.03
2023-05-09T06:01:03.964Z,99867.03
2023-05-09T06:03:31.997Z,99868.75
2023-05-09T06:05:59.068Z,99874.22
2023-05-09T06:08:25.855Z,99876.34
2023-05-09T06:10:52.569Z,99865.94
2023-05-09T06:13:19.349Z,99874.78
2023-05-09T06:15:46.303Z,99882.16
2023-05-09T06:18:13.016Z,99877.16
2023-05-09T06:20:41.106Z,99873.09
2023-05-09T06:23:07.970Z,99884.63
2023-05-09T06:25:34.628Z,99882.81
2023-05-09T06:28:01.267Z,99885.72
2023-05-09T06:30:28.331Z,99876.47
2023-05-09T06:32:55.450Z,99882.25
2023-05-09T06:35:22.336Z,99885.25
2023-05-09T06:37:50.565Z,99882.91
2023-05-09T06:40:17.416Z,99877.91
2023-05-09T06:42:44.497Z,99880.66
2023-05-09T06:45:12.046Z,99883.16
2023-05-09T06:47:38.738Z,99883.50
2023-05-09T06:50:06.484Z,99879.06
2023-05-09T06:52:33.394Z,99882.34
2023-05-09T06:55:01.465Z,99886.50
2023-05-09T06:57:28.553Z,99889.41
2023-05-09T06:59:55.564Z,99891.09
2023-05-09T07:02:22.222Z,99883.06
2023-05-09T07:04:48.962Z,99888.50
2023-05-09T07:07:15.903Z,99895.03
2023-05-09T07:09:42.571Z,99892.09
2023-05-09T07:12:10.556Z,99890.59
2023-05-09T07:14:37.490Z,99888.91
2023-05-09T07:17:21.092Z,99892.34
2023-05-09T07:19:49.413Z,99886.50
2023-05-09T07:22:16.221Z,99887.06
2023-05-09T07:24:44.570Z,99883.56
2023-05-09T07:27:12.844Z,99883.00
2023-05-09T07:29:39.541Z,99880.53
2023-05-09T07:32:06.409Z,99876.13
2023-05-09T07:34:33.606Z,99884.25
2023-05-09T07:37:00.233Z,99885.88
2023-05-09T07:39:26.833Z,99888.88
2023-05-09T07:58:39.847Z,99888.50
2023-05-09T08:01:06.713Z,99885.25
2023-05-09T08:03:34.129Z,99879.50
2023-05-09T08:06:02.591Z,99882.03
2023-05-09T08:08:33.136Z,99880.69
2023-05-09T08:11:00.603Z,99878.19
2023-05-09T08:13:29.812Z,99883.97
2023-05-09T08:15:59.538Z,99893.78
2023-05-09T08:18:27.783Z,99890.44
2023-05-09T08:20:55.614Z,99888.22
2023-05-09T08:23:22.371Z,99885.13
2023-05-09T08:25:54.299Z,99889.63
2023-05-09T08:28:22.592Z,99887.47
2023-05-09T08:30:52.257Z,99882.34
2023-05-09T08:33:22.359Z,99880.22
2023-05-09T08:35:54.816Z,99881.19
2023-05-09T08:38:26.346Z,99870.22
2023-05-09T08:40:54.019Z,99870.56
2023-05-09T08:43:25.147Z,99868.13
2023-05-09T08:45:57.933Z,99869.63
2023-05-09T08:48:32.022Z,99869.72
2023-05-09T08:51:01.405Z,99863.63
2023-05-09T08:53:29.288Z,99865.78
2023-05-09T08:55:59.749Z,99863.50
2023-05-09T08:58:28.352Z,99863.97
2023-05-09T09:00:56.919Z,99860.09
2023-05-09T09:03:24.705Z,99861.47
2023-05-09T09:05:54.760Z,99861.69
2023-05-09T09:08:22.901Z,99862.88
2023-05-09T09:10:51.169Z,99864.38
2023-05-09T09:13:18.930Z,99857.28
2023-05-09T09:15:47.023Z,99856.06
2023-05-09T09:18:22.352Z,99859.63
2023-05-09T09:20:57.101Z,99856.25
2023-05-09T09:23:27.780Z,99855.56
2023-05-09T09:26:00.560Z,99859.22
2023-05-09T09:28:28.662Z,99855.97
2023-05-09T09:30:57.068Z,99848.53
2023-05-09T09:33:25.955Z,99851.25
2023-05-09T09:35:56.597Z,99848.81
2023-05-09T09:38:24.868Z,99846.75
2023-05-09T09:40:56.047Z,99843.41
2023-05-09T09:43:28.403Z,99842.38
2023-05-09T09:45:57.705Z,99838.41
2023-05-09T09:48:25.937Z,99839.41
2023-05-09T09:50:58.470Z,99845.66
2023-05-09T09:53:28.507Z,99832.38
2023-05-09T09:55:55.836Z,99839.28
2023-05-09T09:58:24.155Z,99831.78
2023-05-09T10:01:05.822Z,99832.00
2023-05-09T10:03:39.797Z,99835.47
2023-05-09T10:06:11.769Z,99834.56
2023-05-09T10:08:42.142Z,99833.03
2023-05-09T10:11:10.483Z,99830.03
2023-05-09T10:13:38.525Z,99825.66
2023-05-09T10:16:08.871Z,99829.03
2023-05-09T10:18:36.172Z,99836.31
2023-05-09T10:21:05.407Z,99836.78
2023-05-09T10:23:38.257Z,99823.16
2023-05-09T10:26:19.287Z,99821.91
2023-05-09T10:28:49.188Z,99831.81
2023-05-09T10:31:23.645Z,99828.03
2023-05-09T10:33:51.976Z,99833.16
2023-05-09T10:36:20.768Z,99832.41
2023-05-09T10:38:50.704Z,99821.63
2023-05-09T10:41:18.290Z,99818.34
2023-05-09T10:43:46.022Z,99807.66
2023-05-09T10:46:14.419Z,99815.50
2023-05-09T10:48:43.442Z,99805.56
2023-05-09T10:51:12.955Z,99799.75
2023-05-09T10:53:44.455Z,99801.09
2023-05-09T10:56:26.357Z,99800.78
2023-05-09T10:58:53.853Z,99797.47
2023-05-09T11:01:31.735Z,99792.78
2023-05-09T11:04:01.690Z,99787.81
2023-05-09T11:06:45.342Z,99792.25
2023-05-09T11:09:32.756Z,99790.53
2023-05-09T11:12:10.353Z,99790.16
2023-05-09T11:14:43.882Z,99786.81
2023-05-09T11:17:13.306Z,99793.41
2023-05-09T11:20:03.857Z,99790.56
2023-05-09T11:22:38.818Z,99783.09
2023-05-09T11:25:08.267Z,99789.75
2023-05-09T11:27:45.865Z,99788.09
2023-05-09T11:30:15.306Z,99787.53
2023-05-09T11:32:45.519Z,99785.50
2023-05-09T11:35:20.789Z,99781.63
2023-05-09T11:37:49.759Z,99786.97
2023-05-09T11:40:19.179Z,99773.56
2023-05-09T11:42:50.207Z,99768.72
2023-05-09T11:45:18.405Z,99770.13
2023-05-09T11:47:47.061Z,99774.13
2023-05-09T11:50:16.513Z,99767.22
2023-05-09T11:52:45.209Z,99768.25
2023-05-09T11:55:18.758Z,99766.88
2023-05-09T11:57:50.224Z,99764.91
2023-05-09T12:00:20.134Z,99766.81
2023-05-09T12:02:49.782Z,99762.09
2023-05-09T12:05:18.653Z,99750.63
2023-05-09T12:07:47.524Z,99755.56
2023-05-09T12:10:16.761Z,99753.94
2023-05-09T12:12:49.205Z,99750.09
2023-05-09T12:15:18.597Z,99751.63
2023-05-09T12:17:48.266Z,99752.88
2023-05-09T12:20:17.822Z,99749.69
2023-05-09T12:22:45.030Z,99743.59
2023-05-09T12:25:16.009Z,99749.38
2023-05-09T12:27:43.655Z,99750.44
2023-05-09T12:30:13.733Z,99749.56
2023-05-09T12:32:41.922Z,99745.69
2023-05-09T12:35:11.069Z,99743.00
2023-05-09T12:37:38.815Z,99734.19
2023-05-09T12:40:14.075Z,99747.41
2023-05-09T12:42:44.594Z,99742.25
2023-05-09T12:45:13.452Z,99740.53
2023-05-09T12:47:41.321Z,99737.94
2023-05-09T12:50:12.970Z,99733.03
2023-05-09T12:52:50.654Z,99728.97
2023-05-09T12:55:22.195Z,99736.75
2023-05-09T12:57:59.911Z,99727.41
2023-05-09T13:00:29.322Z,99719.78
2023-05-09T13:02:56.579Z,99728.38
2023-05-09T13:05:24.045Z,99721.59
2023-05-09T13:07:59.404Z,99731.13
2023-05-09T13:10:28.116Z,99726.19
2023-05-09T13:12:55.744Z,99723.88
2023-05-09T13:15:24.330Z,99732.91
2023-05-09T13:17:53.415Z,99739.31
2023-05-09T13:20:20.525Z,99729.44
2023-05-09T13:22:48.214Z,99731.66
2023-05-09T13:25:15.641Z,99733.03
2023-05-09T13:27:43.071Z,99728.69
2023-05-09T13:30:12.470Z,99729.78
2023-05-09T13:32:39.988Z,99729.44
2023-05-09T13:35:09.676Z,99731.78
2023-05-09T13:37:37.488Z,99727.84
2023-05-09T13:40:05.608Z,99728.97
2023-05-09T13:42:34.864Z,99724.28
2023-05-09T13:45:03.285Z,99726.88
2023-05-09T13:47:30.700Z,99737.03
2023-05-09T13:49:58.294Z,99724.78
2023-05-09T13:52:26.964Z,99730.31
2023-05-09T13:54:54.758Z,99725.88
2023-05-09T13:57:22.136Z,99734.44
2023-05-09T13:59:49.367Z,99729.78
2023-05-09T14:02:16.413Z,99733.47
2023-05-09T14:04:43.994Z,99732.72
2023-05-09T14:07:11.289Z,99730.63
2023-05-09T14:09:40.327Z,99721.81
2023-05-09T14:12:07.635Z,99702.38
2023-05-09T14:14:35.013Z,99709.13
2023-05-09T14:17:02.427Z,99718.00
2023-05-09T14:19:29.643Z,99717.09
2023-05-09T14:21:57.038Z,99723.72
2023-05-09T14:24:24.158Z,99723.00
2023-05-09T14:26:53.264Z,99719.34
2023-05-09T14:29:20.464Z,99715.19
2023-05-09T14:31:47.844Z,99715.44
2023-05-09T14:34:15.149Z,99711.88
2023-05-09T14:36:42.786Z,99712.38
2023-05-09T14:39:10.160Z,99713.19
2023-05-09T14:41:38.263Z,99712.31
2023-05-09T14:44:08.506Z,99708.47
2023-05-09T14:46:35.908Z,99708.66
2023-05-09T14:49:03.149Z,99710.69
2023-05-09T14:51:30.839Z,99711.47
2023-05-09T14:53:57.867Z,99710.53
2023-05-09T14:56:25.139Z,99709.03
2023-05-09T14:58:52.350Z,99711.03
2023-05-09T15:01:21.435Z,99715.88
2023-05-09T15:03:48.779Z,99710.09
2023-05-09T15:06:16.197Z,99709.78
2023-05-09T15:08:44.758Z,99706.16
2023-05-09T15:11:12.902Z,99707.44
2023-05-09T15:13:40.072Z,99714.88
2023-05-09T15:16:07.967Z,99718.38
2023-05-09T15:18:37.373Z,99712.63
2023-05-09T15:21:04.536Z,99713.78
2023-05-09T15:23:31.654Z,99718.66
2023-05-09T15:26:00.000Z,99716.63
2023-05-09T15:28:27.484Z,99712.59
2023-05-09T15:30:54.708Z,99709.00
2023-05-09T15:33:22.615Z,99711.50
2023-05-09T15:35:57.043Z,99707.47
2023-05-09T15:38:24.288Z,99713.94
2023-05-09T15:40:52.203Z,99719.19
2023-05-09T15:43:19.498Z,99711.81
2023-05-09T15:45:47.665Z,99725.97
2023-05-09T15:48:15.400Z,99721.25
2023-05-09T15:50:44.292Z,99725.75
2023-05-09T15:53:13.637Z,99724.09
2023-05-09T15:55:41.373Z,99714.25
2023-05-09T15:58:08.862Z,99711.22
2023-05-09T16:00:36.681Z,99711.38
2023-05-09T16:03:04.458Z,99708.06
2023-05-09T16:05:31.755Z,99705.44
2023-05-09T16:07:59.197Z,99709.78
2023-05-09T16:10:28.367Z,99711.00
2023-05-09T16:12:56.499Z,99711.38
2023-05-09T16:15:23.853Z,99714.38
2023-05-09T16:17:51.023Z,99717.81
2023-05-09T16:20:18.551Z,99722.94
2023-05-09T16:22:46.017Z,99713.81
2023-05-09T16:25:15.580Z,99717.72
2023-05-09T16:27:44.941Z,99718.16
2023-05-09T16:30:13.757Z,99717.38
2023-05-09T16:32:41.671Z,99721.97
2023-05-09T16:35:09.640Z,99719.22
2023-05-09T16:37:37.531Z,99717.09
2023-05-09T16:40:05.717Z,99714.09
2023-05-09T16:42:33.118Z,99708.25
2023-05-09T16:45:02.076Z,99705.63
2023-05-09T16:47:29.297Z,99709.06
2023-05-09T16:49:56.694Z,99708.88
2023-05-09T16:52:23.840Z,99710.63
2023-05-09T16:54:51.152Z,99714.28
2023-05-09T16:57:18.864Z,99706.00
2023-05-09T16:59:46.070Z,99713.66
2023-05-09T17:02:15.033Z,99705.69
2023-05-09T17:04:42.521Z,99718.47
2023-05-09T17:07:10.945Z,99713.44
2023-05-09T17:09:38.572Z,99718.31
2023-05-09T17:12:06.997Z,99719.22
2023-05-09T17:14:34.579Z,99722.25
2023-05-09T17:17:01.841Z,99715.72
2023-05-09T17:19:30.700Z,99717.66
2023-05-09T17:21:58.980Z,99720.44
2023-05-09T17:24:26.472Z,99718.56
2023-05-09T17:26:53.650Z,99718.38
2023-05-09T17:29:23.787Z,99725.72
2023-05-09T17:31:51.218Z,99717.75
2023-05-09T17:34:18.410Z,99711.25
2023-05-09T17:36:47.253Z,99707.81
2023-05-09T17:39:14.588Z,99705.69
2023-05-09T17:41:41.754Z,99706.59
2023-05-09T17:44:09.074Z,99708.91
2023-05-09T17:46:36.515Z,99705.47
2023-05-09T17:49:04.071Z,99708.66
2023-05-09T17:51:31.216Z,99709.81
2023-05-09T17:54:00.380Z,99702.53
2023-05-09T17:56:27.826Z,99711.06
2023-05-09T17:58:55.065Z,99709.56
2023-05-09T18:01:23.120Z,99717.72
2023-05-09T18:03:50.566Z,99716.63
2023-05-09T18:06:18.303Z,99715.28
2023-05-09T18:08:45.811Z,99713.97
2023-05-09T18:11:14.632Z,99718.19
2023-05-09T18:13:42.215Z,99715.19
2023-05-09T18:16:09.562Z,99712.06
2023-05-09T18:18:36.776Z,99712.94
2023-05-09T18:21:04.088Z,99718.75
2023-05-09T18:23:31.780Z,99723.84
2023-05-09T18:25:58.983Z,99725.69
2023-05-09T18:28:28.012Z,99732.31
2023-05-09T18:30:57.747Z,99732.84
2023-05-09T18:33:27.488Z,99736.94
2023-05-09T18:35:55.813Z,99735.59
2023-05-09T18:38:22.983Z,99727.94
2023-05-09T18:40:50.178Z,99733.28
2023-05-09T18:43:17.648Z,99738.81
2023-05-09T18:45:46.615Z,99731.84
2023-05-09T18:48:15.377Z,99736.19
2023-05-09T18:50:43.045Z,99730.34
2023-05-09T18:53:10.619Z,99734.38
2023-05-09T18:55:37.867Z,99740.78
2023-05-09T18:58:05.254Z,99736.50
2023-05-09T19:00:32.563Z,99740.78
2023-05-09T19:03:01.394Z,99740.78
2023-05-09T19:05:29.151Z,99742.53
2023-05-09T19:07:56.757Z,99745.75
2023-05-09T19:10:24.121Z,99744.84
2023-05-09T19:12:51.487Z,99746.63
2023-05-09T19:15:18.906Z,99756.44
2023-05-09T19:17:46.151Z,99749.78
2023-05-09T19:20:15.953Z,99757.75
2023-05-09T19:22:43.618Z,99762.63
2023-05-09T19:25:10.924Z,99762.16
2023-05-09T19:27:38.854Z,99768.91
2023-05-09T19:30:07.689Z,99767.03
2023-05-09T19:32:35.051Z,99766.22
2023-05-09T19:35:02.473Z,99769.31
2023-05-09T19:37:31.856Z,99768.50
2023-05-09T19:39:59.353Z,99768.81
2023-05-09T19:42:26.679Z,99776.00
2023-05-09T19:44:54.072Z,99780.69
2023-05-09T19:47:21.326Z,99778.25
2023-05-09T19:49:48.999Z,99773.66
2023-05-09T19:52:16.704Z,99782.13
2023-05-09T19:54:46.038Z,99783.84
2023-05-09T19:57:14.974Z,99779.84
2023-05-09T19:59:42.881Z,99793.03
2023-05-09T20:02:10.087Z,99783.88
2023-05-09T20:04:37.856Z,99782.66
2023-05-09T20:07:05.219Z,99797.75
2023-05-09T20:09:32.943Z,99798.88
2023-05-09T20:12:02.632Z,99788.84
2023-05-09T20:14:30.877Z,99796.09
2023-05-09T20:16:59.049Z,99798.78
2023-05-09T20:19:26.825Z,99791.94
2023-05-09T20:21:54.505Z,99796.03
2023-05-09T20:24:21.627Z,99797.56
2023-05-09T20:26:48.755Z,99806.88
2023-05-09T20:29:18.020Z,99807.47
2023-05-09T20:31:45.305Z,99811.91
2023-05-09T20:34:12.798Z,99810.13
2023-05-09T20:36:40.476Z,99807.94
2023-05-09T20:39:09.716Z,99815.84
2023-05-09T20:41:38.274Z,99820.50
2023-05-09T20:44:06.230Z,99829.66
2023-05-09T20:46:35.281Z,99819.38
2023-05-09T20:49:02.915Z,99821.09
2023-05-09T20:51:30.762Z,99824.84
2023-05-09T20:53:58.615Z,99821.81
2023-05-09T20:56:26.296Z,99824.44
2023-05-09T20:58:53.911Z,99827.00
2023-05-09T21:01:21.583Z,99823.25
2023-05-09T21:03:51.318Z,99828.19
2023-05-09T21:06:18.540Z,99825.56
2023-05-09T21:08:45.723Z,99820.91
2023-05-09T21:11:13.015Z,99825.50
2023-05-09T21:13:40.259Z,99816.16
2023-05-09T21:16:07.800Z,99817.84
2023-05-09T21:18:35.154Z,99817.84
2023-05-09T21:21:06.571Z,99811.75
2023-05-09T21:23:34.180Z,99814.72
2023-05-09T21:26:01.786Z,99815.13
2023-05-09T21:28:32.278Z,99814.38
2023-05-09T21:30:59.458Z,99822.50
2023-05-09T21:33:27.054Z,99825.47
2023-05-09T21:35:54.814Z,99816.66
2023-05-09T21:38:23.842Z,99822.50
2023-05-09T21:40:51.665Z,99813.53
2023-05-09T21:43:19.275Z,99816.66
2023-05-09T21:45:46.634Z,99813.84
2023-05-09T21:48:14.250Z,99817.78
2023-05-09T21:50:44.874Z,99824.06
2023-05-09T21:53:12.437Z,99826.50
2023-05-09T21:55:41.862Z,99831.44
2023-05-09T21:58:08.650Z,99829.72
2023-05-09T22:00:36.007Z,99834.41
2023-05-09T22:03:03.379Z,99835.03
2023-05-09T22:05:30.999Z,99840.84
2023-05-09T22:07:58.908Z,99846.22
2023-05-09T22:10:26.177Z,99846.94
2023-05-09T22:12:55.152Z,99842.28
2023-05-09T22:15:22.905Z,99846.28
2023-05-09T22:17:50.261Z,99838.44
2023-05-09T22:20:17.798Z,99846.28
2023-05-09T22:22:45.606Z,99837.38
2023-05-09T22:25:12.779Z,99835.25
2023-05-09T22:27:40.101Z,99833.41
2023-05-09T22:30:11.291Z,99843.06
2023-05-09T22:32:38.489Z,99843.06
2023-05-09T22:35:06.637Z,99847.84
2023-05-09T22:37:34.567Z,99846.28
2023-05-09T22:40:03.395Z,99858.13
2023-05-09T22:42:31.294Z,99850.44
2023-05-09T22:44:58.595Z,99849.44
2023-05-09T22:47:27.254Z,99855.75
2023-05-09T22:49:54.864Z,99856.06
2023-05-09T22:52:22.821Z,99857.97
2023-05-09T22:54:50.278Z,99859.38
2023-05-09T22:57:17.489Z,99855.44
2023-05-09T22:59:44.794Z,99858.16
2023-05-09T23:02:11.828Z,99847.97
2023-05-09T23:04:40.749Z,99855.50
2023-05-09T23:07:08.637Z,99854.78
2023-05-09T23:09:36.667Z,99851.09
2023-05-09T23:12:04.353Z,99855.44
2023-05-09T23:14:31.587Z,99855.75
2023-05-09T23:17:01.403Z,99859.88
2023-05-09T23:19:32.041Z,99861.16
2023-05-09T23:22:01.313Z,99861.50
2023-05-09T23:24:28.950Z,99857.81
2023-05-09T23:26:56.456Z,99854.53
2023-05-09T23:29:24.464Z,99856.41
2023-05-09T23:31:52.530Z,99853.00
2023-05-09T23:34:20.276Z,99865.09
2023-05-09T23:36:47.923Z,99859.94
2023-05-09T23:39:17.320Z,99855.94
2023-05-09T23:41:46.077Z,99849.25
2023-05-09T23:44:13.461Z,99853.22
2023-05-09T23:46:43.965Z,99859.06
2023-05-09T23:49:12.573Z,99863.75
2023-05-09T23:51:46.368Z,99859.31
2023-05-09T23:54:14.605Z,99850.97
2023-05-09T23:56:44.321Z,99860.88
2023-05-09T23:59:12.250Z,99859.28
